Time;durP1;ratioP1;P1;durP2;ratioP2;P2;SDS_P1;SDS_P2;PMS_P1;PMS_P2;Temp;Humidity;BMP_temperature;BMP_pressure;BME280_temperature;BME280_humidity;BME280_pressure;Samples;Min_cycle;Max_cycle;Signal;HPM_P1;HPM_P2
2023/03/31 00:00:45;;;;;;;;;;;11.80;92.20;;;;;;5030612;28;20002;-73
2023/03/31 00:03:11;;;;;;;;;;;11.80;92.20;;;;;;5031839;28;19925;-73
2023/03/31 00:05:37;;;;;;;;;;;11.80;92.20;;;;;;5031803;28;19912;-73
2023/03/31 00:08:02;;;;;;;;;;;11.70;92.10;;;;;;5032095;28;19912;-73
2023/03/31 00:10:32;;;;;;;;;;;11.50;92.20;;;;;;5031982;28;19912;-73
2023/03/31 00:12:58;;;;;;;;;;;11.50;92.20;;;;;;5031791;28;19906;-73
2023/03/31 00:15:24;;;;;;;;;;;11.30;92.20;;;;;;5031868;28;19911;-73
2023/03/31 00:17:50;;;;;;;;;;;11.20;92.30;;;;;;5031689;28;19913;-73
2023/03/31 00:20:16;;;;;;;;;;;11.20;92.40;;;;;;5030283;28;19936;-73
2023/03/31 00:22:45;;;;;;;;;;;11.20;92.40;;;;;;5031821;28;19913;-73
2023/03/31 00:25:14;;;;;;;;;;;11.20;92.30;;;;;;5031649;28;20342;-73
2023/03/31 00:27:41;;;;;;;;;;;11.20;92.40;;;;;;5030457;28;20437;-73
2023/03/31 00:30:07;;;;;;;;;;;11.20;92.30;;;;;;5031540;28;19913;-73
2023/03/31 00:32:32;;;;;;;;;;;11.10;92.30;;;;;;5030124;28;20407;-73
2023/03/31 00:34:58;;;;;;;;;;;11.10;92.30;;;;;;5031369;28;19909;-73
2023/03/31 00:37:23;;;;;;;;;;;11.00;92.30;;;;;;5030298;28;20384;-73
2023/03/31 00:39:49;;;;;;;;;;;11.10;92.40;;;;;;5030096;28;20277;-73
2023/03/31 00:42:14;;;;;;;;;;;11.10;92.30;;;;;;5029951;28;19916;-73
2023/03/31 00:44:58;;;;;;;;;;;11.10;92.40;;;;;;5031279;28;20273;-73
2023/03/31 00:47:25;;;;;;;;;;;11.10;92.30;;;;;;5031298;28;19959;-73
2023/03/31 00:49:53;;;;;;;;;;;11.10;92.30;;;;;;5031344;28;20304;-73
2023/03/31 00:52:40;;;;;;;;;;;11.10;92.30;;;;;;5031082;28;20189;-73
2023/03/31 00:55:08;;;;;;;;;;;11.00;92.30;;;;;;5031079;28;19928;-74
2023/03/31 00:57:35;;;;;;;;;;;11.00;92.30;;;;;;5029528;28;19951;-73
2023/03/31 01:00:22;;;;;;;;;;;11.00;92.40;;;;;;5031351;28;20356;-73
2023/03/31 01:02:54;;;;;;;;;;;11.00;92.40;;;;;;5029664;28;19967;-73
2023/03/31 01:05:43;;;;;;;;;;;11.00;92.40;;;;;;5030717;28;20070;-73
2023/03/31 01:08:09;;;;;;;;;;;11.00;92.40;;;;;;5027908;28;19905;-73
2023/03/31 01:10:44;;;;;;;;;;;11.00;92.40;;;;;;5030991;28;19969;-74
2023/03/31 01:13:10;;;;;;;;;;;11.00;92.40;;;;;;5030864;28;19920;-73
2023/03/31 01:15:37;;;;;;;;;;;11.00;92.40;;;;;;5030884;28;19928;-74
2023/03/31 01:18:03;;;;;;;;;;;11.00;92.40;;;;;;5030756;28;19909;-74
2023/03/31 01:20:49;;;;;;;;;;;11.00;92.40;;;;;;5029325;28;19995;-74
2023/03/31 01:23:21;;;;;;;;;;;11.10;92.40;;;;;;5028915;28;19934;-74
2023/03/31 01:26:01;;;;;;;;;;;11.00;92.40;;;;;;5030493;28;19966;-73
2023/03/31 01:28:33;;;;;;;;;;;11.00;92.30;;;;;;5029418;28;19912;-73
2023/03/31 01:30:58;;;;;;;;;;;11.10;92.40;;;;;;5030523;28;19947;-74
2023/03/31 01:33:24;;;;;;;;;;;11.00;92.40;;;;;;5029216;28;20388;-73
2023/03/31 01:35:52;;;;;;;;;;;11.00;92.40;;;;;;5030326;28;20380;-74
2023/03/31 01:38:37;;;;;;;;;;;11.00;92.40;;;;;;5030283;28;20362;-74
2023/03/31 01:41:11;;;;;;;;;;;11.00;92.40;;;;;;5030133;28;19964;-74
2023/03/31 01:43:45;;;;;;;;;;;11.10;92.30;;;;;;5030108;28;20091;-74
2023/03/31 01:46:16;;;;;;;;;;;11.00;92.30;;;;;;5028894;28;19909;-74
2023/03/31 01:48:48;;;;;;;;;;;11.00;92.30;;;;;;5028842;28;19922;-74
2023/03/31 01:51:20;;;;;;;;;;;11.00;92.30;;;;;;5029111;28;20245;-74
2023/03/31 01:53:50;;;;;;;;;;;11.00;92.30;;;;;;5030031;28;20007;-74
2023/03/31 01:56:20;;;;;;;;;;;10.90;92.30;;;;;;5029833;28;19912;-74
2023/03/31 01:58:50;;;;;;;;;;;10.90;92.40;;;;;;5030029;28;20371;-73
2023/03/31 02:01:19;;;;;;;;;;;11.00;92.40;;;;;;5029794;28;19967;-73
2023/03/31 02:04:04;;;;;;;;;;;10.90;92.30;;;;;;5029899;28;19971;-73
2023/03/31 02:06:33;;;;;;;;;;;10.90;92.30;;;;;;5029664;28;20419;-73
2023/03/31 02:09:01;;;;;;;;;;;10.90;92.40;;;;;;5029792;28;19905;-73
2023/03/31 02:11:27;;;;;;;;;;;10.90;92.30;;;;;;5029652;28;20258;-74
2023/03/31 02:13:54;;;;;;;;;;;10.90;92.40;;;;;;5029649;28;19921;-74
2023/03/31 02:16:23;;;;;;;;;;;10.90;92.30;;;;;;5029111;28;19909;-73
2023/03/31 02:18:51;;;;;;;;;;;10.90;92.40;;;;;;5028326;28;19928;-74
2023/03/31 02:21:18;;;;;;;;;;;10.90;92.40;;;;;;5029396;28;20350;-73
2023/03/31 02:23:44;;;;;;;;;;;10.90;92.40;;;;;;5029484;28;19925;-73
2023/03/31 02:26:19;;;;;;;;;;;10.80;92.40;;;;;;5029446;28;19909;-74
2023/03/31 02:28:45;;;;;;;;;;;10.90;92.40;;;;;;5029580;28;19992;-73
2023/03/31 02:31:40;;;;;;;;;;;10.90;92.40;;;;;;5029423;28;20119;-74
2023/03/31 02:34:05;;;;;;;;;;;10.90;92.50;;;;;;5024160;28;19905;-73
2023/03/31 02:36:32;;;;;;;;;;;10.90;92.50;;;;;;5027973;28;19912;-73
2023/03/31 02:38:59;;;;;;;;;;;10.90;92.40;;;;;;5029329;28;19928;-73
2023/03/31 02:41:25;;;;;;;;;;;10.90;92.40;;;;;;5029174;28;19972;-73
2023/03/31 02:43:50;;;;;;;;;;;10.90;92.40;;;;;;5029055;28;19913;-73
2023/03/31 02:46:16;;;;;;;;;;;10.90;92.40;;;;;;5028994;28;19931;-73
2023/03/31 02:48:44;;;;;;;;;;;10.90;92.40;;;;;;5029084;28;20286;-74
2023/03/31 02:51:10;;;;;;;;;;;10.90;92.50;;;;;;5029019;28;20023;-74
2023/03/31 02:53:38;;;;;;;;;;;10.90;92.40;;;;;;5029188;28;19956;-74
2023/03/31 02:56:16;;;;;;;;;;;10.90;92.40;;;;;;5028793;28;19912;-74
2023/03/31 02:59:20;;;;;;;;;;;10.90;92.40;;;;;;5028542;28;20257;-74
2023/03/31 03:01:48;;;;;;;;;;;10.90;92.50;;;;;;5006519;28;19909;-74
2023/03/31 03:04:25;;;;;;;;;;;10.90;92.50;;;;;;4990441;28;19921;-73
2023/03/31 03:06:56;;;;;;;;;;;10.90;92.50;;;;;;5009332;28;20436;-74
2023/03/31 03:09:40;;;;;;;;;;;11.00;92.50;;;;;;5028693;28;20016;-74
2023/03/31 03:12:20;;;;;;;;;;;11.10;92.50;;;;;;5028702;28;19912;-74
2023/03/31 03:14:46;;;;;;;;;;;11.10;92.50;;;;;;5028563;28;19958;-74
2023/03/31 03:17:35;;;;;;;;;;;11.10;92.40;;;;;;5028499;28;19915;-73
2023/03/31 03:20:06;;;;;;;;;;;11.10;92.40;;;;;;5021432;28;19909;-73
2023/03/31 03:22:32;;;;;;;;;;;11.10;92.50;;;;;;5028596;28;19905;-74
2023/03/31 03:24:57;;;;;;;;;;;11.10;92.70;;;;;;5028446;28;19944;-73
2023/03/31 03:27:23;;;;;;;;;;;11.20;92.50;;;;;;5028306;28;19909;-74
2023/03/31 03:29:49;;;;;;;;;;;11.20;92.50;;;;;;5028300;28;19909;-74
2023/03/31 03:32:14;;;;;;;;;;;11.20;92.50;;;;;;5028302;28;19920;-74
2023/03/31 03:34:40;;;;;;;;;;;11.20;92.40;;;;;;5028391;28;19998;-74
2023/03/31 03:37:06;;;;;;;;;;;11.20;92.50;;;;;;5027103;28;19913;-74
2023/03/31 03:39:31;;;;;;;;;;;11.20;92.50;;;;;;5026732;28;19960;-74
2023/03/31 03:41:57;;;;;;;;;;;11.20;92.50;;;;;;5028125;28;19966;-74
2023/03/31 03:44:22;;;;;;;;;;;11.30;92.50;;;;;;5028130;28;20361;-74
2023/03/31 03:46:48;;;;;;;;;;;11.30;92.50;;;;;;5028119;28;20276;-74
2023/03/31 03:49:13;;;;;;;;;;;11.20;92.40;;;;;;5028147;28;19971;-74
2023/03/31 03:51:39;;;;;;;;;;;11.30;92.50;;;;;;5028052;28;19916;-74
2023/03/31 03:54:05;;;;;;;;;;;11.40;92.40;;;;;;5026546;28;19928;-74
2023/03/31 03:56:30;;;;;;;;;;;11.40;92.40;;;;;;5027736;28;20424;-74
2023/03/31 03:58:56;;;;;;;;;;;11.50;92.40;;;;;;5026633;28;19909;-74
2023/03/31 04:01:22;;;;;;;;;;;11.50;92.30;;;;;;5026662;28;20016;-74
2023/03/31 04:03:48;;;;;;;;;;;11.50;92.30;;;;;;5028369;28;19928;-74
2023/03/31 04:06:13;;;;;;;;;;;11.50;92.30;;;;;;5027683;28;20382;-74
2023/03/31 04:08:39;;;;;;;;;;;11.60;92.40;;;;;;5028039;28;19921;-74
2023/03/31 04:11:11;;;;;;;;;;;11.60;92.40;;;;;;5027813;28;19913;-74
2023/03/31 04:13:37;;;;;;;;;;;11.70;92.30;;;;;;5027883;28;20415;-73
2023/03/31 04:16:02;;;;;;;;;;;11.70;92.30;;;;;;5026509;28;19943;-74
2023/03/31 04:18:28;;;;;;;;;;;11.70;92.30;;;;;;5027853;28;20385;-74
2023/03/31 04:21:02;;;;;;;;;;;11.70;92.30;;;;;;5027722;28;20003;-74
2023/03/31 04:23:31;;;;;;;;;;;11.80;92.30;;;;;;5027872;28;19916;-74
2023/03/31 04:25:57;;;;;;;;;;;11.80;92.30;;;;;;5027651;28;20319;-74
2023/03/31 04:28:25;;;;;;;;;;;11.90;92.30;;;;;;5027727;28;19999;-74
2023/03/31 04:30:53;;;;;;;;;;;11.90;92.30;;;;;;5027661;28;20396;-74
2023/03/31 04:33:20;;;;;;;;;;;11.90;92.50;;;;;;5026580;28;19905;-74
2023/03/31 04:35:48;;;;;;;;;;;11.90;92.30;;;;;;5027721;28;20302;-74
2023/03/31 04:38:17;;;;;;;;;;;11.90;92.30;;;;;;5027727;28;19921;-74
2023/03/31 04:40:46;;;;;;;;;;;11.90;92.30;;;;;;5030163;28;19992;-73
2023/03/31 04:43:12;;;;;;;;;;;11.90;92.30;;;;;;5029963;28;19912;-74
2023/03/31 04:45:37;;;;;;;;;;;11.90;92.30;;;;;;5031199;28;19909;-73
2023/03/31 04:48:03;;;;;;;;;;;12.00;92.30;;;;;;5030502;28;20019;-74
2023/03/31 04:50:29;;;;;;;;;;;12.00;92.30;;;;;;5029943;28;20349;-74
2023/03/31 04:52:54;;;;;;;;;;;12.00;92.30;;;;;;5031012;28;20024;-74
2023/03/31 04:55:20;;;;;;;;;;;12.00;92.30;;;;;;5030921;28;19921;-74
2023/03/31 04:57:46;;;;;;;;;;;12.10;92.20;;;;;;5030895;28;19979;-73
2023/03/31 05:00:11;;;;;;;;;;;12.00;92.20;;;;;;5029339;28;20355;-74
2023/03/31 05:02:37;;;;;;;;;;;12.00;92.20;;;;;;5030672;28;19967;-74
2023/03/31 05:05:03;;;;;;;;;;;11.90;92.20;;;;;;5030995;28;19913;-74
2023/03/31 05:07:28;;;;;;;;;;;11.90;92.30;;;;;;5030892;28;20000;-73
2023/03/31 05:09:54;;;;;;;;;;;11.90;92.30;;;;;;5031091;28;20005;-73
2023/03/31 05:12:20;;;;;;;;;;;11.90;92.40;;;;;;5031109;28;20366;-73
2023/03/31 05:14:45;;;;;;;;;;;11.90;92.40;;;;;;5030899;28;19937;-73
2023/03/31 05:17:11;;;;;;;;;;;11.90;92.40;;;;;;5029353;28;19925;-74
2023/03/31 05:19:37;;;;;;;;;;;11.90;92.40;;;;;;5030715;28;19920;-74
2023/03/31 05:22:02;;;;;;;;;;;11.90;92.30;;;;;;5030527;28;19968;-74
2023/03/31 05:24:28;;;;;;;;;;;11.90;92.30;;;;;;5030285;28;19915;-73
2023/03/31 05:26:56;;;;;;;;;;;11.80;92.30;;;;;;5030569;28;20329;-73
2023/03/31 05:29:22;;;;;;;;;;;11.80;92.40;;;;;;5030407;28;19917;-73
2023/03/31 05:31:48;;;;;;;;;;;11.80;92.40;;;;;;5030067;28;20010;-74
2023/03/31 05:34:13;;;;;;;;;;;11.80;92.40;;;;;;5030405;28;20366;-73
2023/03/31 05:36:39;;;;;;;;;;;11.80;92.40;;;;;;5030538;28;20011;-73
2023/03/31 05:39:06;;;;;;;;;;;11.80;92.40;;;;;;5029068;28;20396;-73
2023/03/31 05:41:31;;;;;;;;;;;11.80;92.40;;;;;;5029985;28;20369;-69
2023/03/31 05:43:57;;;;;;;;;;;11.80;92.40;;;;;;5030082;28;19939;-71
2023/03/31 05:46:22;;;;;;;;;;;11.80;92.40;;;;;;5029995;28;19915;-71
2023/03/31 05:48:48;;;;;;;;;;;11.70;92.50;;;;;;5029692;28;20404;-71
2023/03/31 05:51:14;;;;;;;;;;;11.70;92.40;;;;;;5028677;28;19912;-74
2023/03/31 05:53:40;;;;;;;;;;;11.70;92.50;;;;;;5029996;28;19913;-73
2023/03/31 05:56:06;;;;;;;;;;;11.70;92.50;;;;;;5028424;28;20324;-74
2023/03/31 05:58:35;;;;;;;;;;;11.70;92.50;;;;;;5029741;28;19909;-73
2023/03/31 06:01:06;;;;;;;;;;;11.80;92.50;;;;;;5029734;28;19909;-73
2023/03/31 06:03:32;;;;;;;;;;;11.80;92.50;;;;;;5029455;28;19916;-73
2023/03/31 06:05:58;;;;;;;;;;;11.90;92.50;;;;;;5028368;28;20032;-74
2023/03/31 06:08:23;;;;;;;;;;;11.90;92.50;;;;;;5028263;28;20004;-73
2023/03/31 06:10:49;;;;;;;;;;;12.00;92.50;;;;;;5029595;28;19962;-73
2023/03/31 06:13:15;;;;;;;;;;;12.00;92.50;;;;;;5029547;28;19911;-73
2023/03/31 06:15:41;;;;;;;;;;;12.00;92.50;;;;;;5029406;28;19914;-73
2023/03/31 06:18:09;;;;;;;;;;;12.00;92.50;;;;;;5029449;28;19909;-74
2023/03/31 06:20:37;;;;;;;;;;;12.10;92.40;;;;;;5028213;28;19945;-74
2023/03/31 06:23:03;;;;;;;;;;;12.10;92.40;;;;;;5029174;28;20372;-73
2023/03/31 06:25:29;;;;;;;;;;;12.10;92.50;;;;;;5029316;28;19916;-73
2023/03/31 06:27:54;;;;;;;;;;;12.10;92.40;;;;;;5027676;28;19909;-73
2023/03/31 06:30:20;;;;;;;;;;;12.10;92.40;;;;;;5029249;28;19952;-74
2023/03/31 06:32:46;;;;;;;;;;;12.20;92.50;;;;;;5027979;28;19913;-73
2023/03/31 06:35:11;;;;;;;;;;;12.20;92.50;;;;;;5028730;28;19962;-73
2023/03/31 06:37:37;;;;;;;;;;;12.20;92.50;;;;;;5028625;28;19909;-74
2023/03/31 06:40:03;;;;;;;;;;;12.20;92.50;;;;;;5027765;28;19920;-74
2023/03/31 06:42:29;;;;;;;;;;;12.20;92.50;;;;;;5027797;28;19971;-74
2023/03/31 06:44:55;;;;;;;;;;;12.20;92.50;;;;;;5027730;28;20007;-74
2023/03/31 06:47:20;;;;;;;;;;;12.20;92.50;;;;;;5028777;28;20352;-73
2023/03/31 06:49:46;;;;;;;;;;;12.20;92.50;;;;;;5027630;28;19975;-73
2023/03/31 06:52:11;;;;;;;;;;;12.20;92.50;;;;;;5027347;28;20012;-74
2023/03/31 06:54:37;;;;;;;;;;;12.30;92.50;;;;;;5028642;28;19966;-74
2023/03/31 06:57:03;;;;;;;;;;;12.30;92.50;;;;;;5029040;28;19936;-73
2023/03/31 06:59:28;;;;;;;;;;;12.40;92.50;;;;;;5026840;28;19909;-74
2023/03/31 07:01:54;;;;;;;;;;;12.40;92.50;;;;;;5028009;28;19913;-74
2023/03/31 07:04:19;;;;;;;;;;;12.30;92.50;;;;;;5028268;28;19944;-73
2023/03/31 07:06:45;;;;;;;;;;;12.30;92.50;;;;;;5028172;28;19952;-73
2023/03/31 07:09:10;;;;;;;;;;;12.20;92.50;;;;;;5028483;28;20334;-74
2023/03/31 07:11:36;;;;;;;;;;;12.30;92.50;;;;;;5028410;28;19908;-73
2023/03/31 07:14:02;;;;;;;;;;;12.30;92.50;;;;;;5026937;28;19905;-74
2023/03/31 07:16:27;;;;;;;;;;;12.40;92.60;;;;;;5028093;28;20011;-73
2023/03/31 07:18:58;;;;;;;;;;;12.40;92.50;;;;;;5029092;28;19909;-74
2023/03/31 07:21:24;;;;;;;;;;;12.40;92.50;;;;;;5027881;28;19916;-73
2023/03/31 07:23:49;;;;;;;;;;;12.50;92.60;;;;;;5026668;28;19919;-74
2023/03/31 07:26:15;;;;;;;;;;;12.50;92.50;;;;;;5027952;28;19909;-73
2023/03/31 07:28:41;;;;;;;;;;;12.50;92.60;;;;;;5028282;28;19971;-74
2023/03/31 07:31:13;;;;;;;;;;;12.50;92.50;;;;;;5027996;28;19912;-74
2023/03/31 07:33:39;;;;;;;;;;;12.60;92.50;;;;;;5026291;28;20409;-74
2023/03/31 07:36:05;;;;;;;;;;;12.60;92.50;;;;;;5027566;28;19912;-73
2023/03/31 07:38:30;;;;;;;;;;;12.60;92.50;;;;;;5010274;28;19963;-74
2023/03/31 07:40:56;;;;;;;;;;;12.70;92.60;;;;;;5027503;28;20361;-74
2023/03/31 07:43:22;;;;;;;;;;;12.70;92.50;;;;;;5027653;28;19955;-74
2023/03/31 07:45:47;;;;;;;;;;;12.70;92.60;;;;;;5027217;28;19909;-74
2023/03/31 07:48:13;;;;;;;;;;;12.70;92.60;;;;;;5026294;28;20324;-74
2023/03/31 07:50:38;;;;;;;;;;;12.60;92.60;;;;;;5027728;28;19940;-74
2023/03/31 07:53:04;;;;;;;;;;;12.60;92.60;;;;;;5027649;28;19909;-74
2023/03/31 07:55:30;;;;;;;;;;;12.60;92.60;;;;;;5027460;28;19918;-73
2023/03/31 07:57:55;;;;;;;;;;;12.50;92.60;;;;;;5027412;28;19947;-74
2023/03/31 08:00:21;;;;;;;;;;;12.50;92.60;;;;;;5027499;28;20018;-74
2023/03/31 08:02:47;;;;;;;;;;;12.50;92.70;;;;;;5027421;28;19955;-74
2023/03/31 08:05:14;;;;;;;;;;;12.60;92.70;;;;;;5027568;28;20369;-74
2023/03/31 08:07:41;;;;;;;;;;;12.70;92.70;;;;;;5025878;28;19909;-74
2023/03/31 08:10:08;;;;;;;;;;;12.90;92.70;;;;;;5027600;28;19913;-74
2023/03/31 08:12:33;;;;;;;;;;;12.90;92.60;;;;;;5027328;28;20376;-74
2023/03/31 08:14:59;;;;;;;;;;;13.00;92.70;;;;;;5027981;28;19909;-74
2023/03/31 08:17:24;;;;;;;;;;;13.10;92.60;;;;;;5031288;28;19909;-74
2023/03/31 08:19:50;;;;;;;;;;;13.20;92.60;;;;;;5031138;28;19920;-74
2023/03/31 08:22:16;;;;;;;;;;;13.30;92.70;;;;;;5031243;28;19908;-74
2023/03/31 08:24:42;;;;;;;;;;;13.30;92.60;;;;;;5030911;28;20416;-74
2023/03/31 08:27:07;;;;;;;;;;;13.40;92.60;;;;;;5031090;28;20000;-74
2023/03/31 08:29:33;;;;;;;;;;;13.40;92.70;;;;;;5031264;28;19909;-74
2023/03/31 08:31:59;;;;;;;;;;;13.40;92.60;;;;;;5031540;28;19935;-74
2023/03/31 08:34:25;;;;;;;;;;;13.30;92.60;;;;;;5030954;28;19916;-74
2023/03/31 08:36:51;;;;;;;;;;;13.30;92.70;;;;;;5029594;28;19949;-74
2023/03/31 08:39:17;;;;;;;;;;;13.40;92.80;;;;;;5029701;28;20361;-74
2023/03/31 08:41:42;;;;;;;;;;;13.40;92.70;;;;;;5030971;28;19909;-74
2023/03/31 08:44:34;;;;;;;;;;;13.40;92.70;;;;;;5030793;28;19910;-74
2023/03/31 08:47:01;;;;;;;;;;;13.40;92.70;;;;;;5029353;28;19944;-73
2023/03/31 08:49:27;;;;;;;;;;;13.50;92.70;;;;;;5030581;28;19909;-74
2023/03/31 08:52:03;;;;;;;;;;;13.50;92.60;;;;;;5030569;28;19905;-73
2023/03/31 08:54:35;;;;;;;;;;;13.50;92.60;;;;;;5029103;28;20004;-73
2023/03/31 08:57:02;;;;;;;;;;;13.60;92.60;;;;;;5030562;28;19955;-71
2023/03/31 08:59:30;;;;;;;;;;;13.60;92.60;;;;;;5031180;28;19915;-71
2023/03/31 09:01:59;;;;;;;;;;;13.50;92.50;;;;;;5031314;28;19905;-72
2023/03/31 09:04:28;;;;;;;;;;;13.50;92.60;;;;;;5030237;28;20340;-71
2023/03/31 09:07:01;;;;;;;;;;;13.40;92.60;;;;;;5031647;28;19939;-71
2023/03/31 09:09:48;;;;;;;;;;;13.50;92.70;;;;;;5029597;28;19909;-72
2023/03/31 09:12:17;;;;;;;;;;;13.60;92.70;;;;;;5031479;28;19924;-71
2023/03/31 09:14:48;;;;;;;;;;;13.60;92.70;;;;;;5031466;28;20008;-73
2023/03/31 09:17:24;;;;;;;;;;;13.70;92.70;;;;;;5031444;28;19984;-72
2023/03/31 09:20:02;;;;;;;;;;;13.70;92.60;;;;;;5030528;28;19971;-72
2023/03/31 09:22:33;;;;;;;;;;;13.70;92.70;;;;;;5030904;28;19955;-72
2023/03/31 09:25:09;;;;;;;;;;;13.80;92.70;;;;;;5031083;28;20328;-72
2023/03/31 09:27:36;;;;;;;;;;;13.90;92.70;;;;;;5031038;28;19909;-72
2023/03/31 09:30:04;;;;;;;;;;;14.00;92.60;;;;;;5031045;28;19909;-72
2023/03/31 09:32:31;;;;;;;;;;;14.10;92.60;;;;;;5029757;28;19941;-72
2023/03/31 09:35:17;;;;;;;;;;;14.20;92.70;;;;;;5030625;28;19959;-72
2023/03/31 09:37:42;;;;;;;;;;;14.40;92.70;;;;;;5031081;28;19915;-76
2023/03/31 09:40:19;;;;;;;;;;;14.50;92.60;;;;;;5036401;28;19921;-75
2023/03/31 09:42:46;;;;;;;;;;;14.50;92.60;;;;;;5042389;28;19905;-76
2023/03/31 09:45:15;;;;;;;;;;;14.60;92.50;;;;;;5036932;28;20004;-77
2023/03/31 09:47:42;;;;;;;;;;;14.60;92.50;;;;;;5043443;28;20265;-76
2023/03/31 09:50:09;;;;;;;;;;;14.60;92.50;;;;;;5040645;28;20427;-76
2023/03/31 09:52:51;;;;;;;;;;;14.50;92.50;;;;;;5043228;28;19916;-76
2023/03/31 09:55:41;;;;;;;;;;;14.60;92.50;;;;;;5039980;28;19904;-77
2023/03/31 09:58:10;;;;;;;;;;;14.60;92.60;;;;;;5038007;28;20003;-78
2023/03/31 10:00:39;;;;;;;;;;;14.70;92.60;;;;;;5045555;28;20334;-75
2023/03/31 10:03:07;;;;;;;;;;;14.80;92.60;;;;;;5041862;28;20381;-77
2023/03/31 10:05:42;;;;;;;;;;;14.80;92.60;;;;;;5044081;28;19932;-74
2023/03/31 10:08:28;;;;;;;;;;;14.90;92.70;;;;;;5042902;28;19992;-76
2023/03/31 10:11:06;;;;;;;;;;;14.90;92.60;;;;;;5041042;28;19913;-75
2023/03/31 10:13:39;;;;;;;;;;;15.00;92.60;;;;;;5038095;28;20377;-76
2023/03/31 10:16:08;;;;;;;;;;;15.00;92.70;;;;;;5040722;28;19905;-75
2023/03/31 10:18:38;;;;;;;;;;;14.90;92.70;;;;;;5038828;28;19915;-78
2023/03/31 10:21:05;;;;;;;;;;;14.80;92.60;;;;;;5036778;28;19967;-76
2023/03/31 10:23:31;;;;;;;;;;;14.70;92.80;;;;;;5040300;28;19940;-72
2023/03/31 10:25:58;;;;;;;;;;;14.70;92.80;;;;;;5047901;28;19932;-77
2023/03/31 10:28:24;;;;;;;;;;;14.70;92.80;;;;;;5041181;28;19920;-78
2023/03/31 10:31:00;;;;;;;;;;;14.70;92.80;;;;;;5040497;28;19913;-74
2023/03/31 10:33:26;;;;;;;;;;;14.80;92.80;;;;;;5040583;28;19905;-73
2023/03/31 10:35:58;;;;;;;;;;;14.80;92.80;;;;;;5040866;28;19905;-78
2023/03/31 10:38:35;;;;;;;;;;;15.00;93.00;;;;;;5037361;28;20060;-77
2023/03/31 10:41:01;;;;;;;;;;;15.20;93.00;;;;;;5040340;28;20558;-76
2023/03/31 10:43:28;;;;;;;;;;;15.40;93.00;;;;;;5040684;28;19995;-75
2023/03/31 10:46:00;;;;;;;;;;;15.60;93.00;;;;;;5040470;28;19920;-72
2023/03/31 10:48:27;;;;;;;;;;;15.60;92.90;;;;;;5034915;28;19905;-76
2023/03/31 10:50:55;;;;;;;;;;;15.60;92.80;;;;;;5037877;28;20024;-76
2023/03/31 10:53:21;;;;;;;;;;;15.70;92.80;;;;;;5040541;28;19940;-76
2023/03/31 10:55:58;;;;;;;;;;;15.60;92.80;;;;;;5040476;28;20357;-76
2023/03/31 10:58:24;;;;;;;;;;;15.50;92.80;;;;;;5039425;28;19909;-76
2023/03/31 11:01:01;;;;;;;;;;;15.40;92.90;;;;;;5037710;28;20316;-76
2023/03/31 11:03:38;;;;;;;;;;;15.40;92.90;;;;;;5037232;28;19921;-76
2023/03/31 11:06:20;;;;;;;;;;;15.30;92.90;;;;;;5036253;28;19905;-77
2023/03/31 11:08:54;;;;;;;;;;;15.20;92.80;;;;;;5036411;28;19912;-75
2023/03/31 11:11:26;;;;;;;;;;;15.00;92.70;;;;;;5040479;28;19958;-76
2023/03/31 11:14:06;;;;;;;;;;;14.70;92.80;;;;;;5036321;28;19908;-75
2023/03/31 11:16:50;;;;;;;;;;;14.50;92.90;;;;;;5036222;28;20340;-76
2023/03/31 11:19:36;;;;;;;;;;;14.30;93.00;;;;;;5040833;28;19905;-70
2023/03/31 11:22:08;;;;;;;;;;;14.10;93.00;;;;;;5039704;28;20372;-77
2023/03/31 11:24:34;;;;;;;;;;;14.10;93.10;;;;;;5032628;28;19911;-78
2023/03/31 11:27:05;;;;;;;;;;;14.20;93.10;;;;;;5027531;28;19909;-76
2023/03/31 11:29:34;;;;;;;;;;;14.20;93.10;;;;;;5028268;28;19915;-75
2023/03/31 11:32:11;;;;;;;;;;;14.30;93.10;;;;;;5028320;28;20019;-75
2023/03/31 11:34:55;;;;;;;;;;;14.50;93.00;;;;;;5028055;28;19905;-76
2023/03/31 11:37:30;;;;;;;;;;;14.50;92.80;;;;;;5026513;28;19905;-74
2023/03/31 11:40:15;;;;;;;;;;;14.30;92.90;;;;;;5027885;28;20004;-74
2023/03/31 11:42:53;;;;;;;;;;;14.20;92.80;;;;;;5028160;28;19911;-76
2023/03/31 11:45:45;;;;;;;;;;;14.00;92.80;;;;;;5027756;28;19913;-76
2023/03/31 11:48:31;;;;;;;;;;;13.90;93.10;;;;;;5027775;28;19909;-75
2023/03/31 11:50:59;;;;;;;;;;;13.90;93.10;;;;;;5026718;28;19905;-75
2023/03/31 11:53:29;;;;;;;;;;;14.00;93.20;;;;;;5027785;28;19905;-75
2023/03/31 11:55:56;;;;;;;;;;;14.10;93.20;;;;;;5028460;28;19905;-75
2023/03/31 11:58:36;;;;;;;;;;;14.20;93.20;;;;;;5028282;28;19912;-74
2023/03/31 12:01:02;;;;;;;;;;;14.30;93.20;;;;;;5026480;28;19909;-73
2023/03/31 12:03:40;;;;;;;;;;;14.60;93.20;;;;;;4986761;28;1157754;-75
2023/03/31 12:06:15;;;;;;;;;;;14.70;93.00;;;;;;5028729;28;19913;-75
2023/03/31 12:09:00;;;;;;;;;;;14.70;93.00;;;;;;5027084;28;19909;-76
2023/03/31 12:11:28;;;;;;;;;;;14.70;93.10;;;;;;5028201;28;19906;-76
2023/03/31 12:14:16;;;;;;;;;;;14.70;92.90;;;;;;5028094;28;19906;-76
2023/03/31 12:16:48;;;;;;;;;;;14.60;93.00;;;;;;5025243;28;19905;-75
2023/03/31 12:19:16;;;;;;;;;;;14.60;93.10;;;;;;5028605;28;20354;-75
2023/03/31 12:21:48;;;;;;;;;;;14.80;93.10;;;;;;5036526;28;19959;-76
2023/03/31 12:24:13;;;;;;;;;;;14.90;93.20;;;;;;5030955;28;19960;-73
2023/03/31 12:26:47;;;;;;;;;;;15.10;93.30;;;;;;5033380;28;20318;-75
2023/03/31 12:29:20;;;;;;;;;;;15.40;93.30;;;;;;5035855;28;19959;-75
2023/03/31 12:31:46;;;;;;;;;;;15.70;93.10;;;;;;5036494;28;19905;-76
2023/03/31 12:34:14;;;;;;;;;;;15.80;93.00;;;;;;5039674;28;19909;-76
2023/03/31 12:36:59;;;;;;;;;;;15.80;92.90;;;;;;5037462;28;19915;-74
2023/03/31 12:39:40;;;;;;;;;;;15.90;92.90;;;;;;5038846;28;19905;-75
2023/03/31 12:42:12;;;;;;;;;;;15.80;92.90;;;;;;5039447;28;20290;-75
2023/03/31 12:44:46;;;;;;;;;;;15.70;92.80;;;;;;5034573;28;20436;-75
2023/03/31 12:47:38;;;;;;;;;;;15.70;92.90;;;;;;5036453;28;20305;-75
2023/03/31 12:50:10;;;;;;;;;;;15.60;92.80;;;;;;5033919;28;19905;-75
2023/03/31 12:52:57;;;;;;;;;;;15.50;92.70;;;;;;5038910;28;20407;-76
2023/03/31 12:55:27;;;;;;;;;;;15.40;92.70;;;;;;5036542;28;19905;-76
2023/03/31 12:58:13;;;;;;;;;;;15.20;92.70;;;;;;5035844;28;20433;-76
2023/03/31 13:00:58;;;;;;;;;;;15.00;92.80;;;;;;5032864;28;19912;-75
2023/03/31 13:03:33;;;;;;;;;;;14.80;92.90;;;;;;5041297;28;19928;-75
2023/03/31 13:05:59;;;;;;;;;;;14.80;93.30;;;;;;5040918;28;19912;-75
2023/03/31 13:08:43;;;;;;;;;;;14.90;93.30;;;;;;5038739;28;19919;-74
2023/03/31 13:11:09;;;;;;;;;;;15.20;93.30;;;;;;5039209;28;20015;-75
2023/03/31 13:13:34;;;;;;;;;;;15.40;93.20;;;;;;5041511;28;20306;-73
2023/03/31 13:16:01;;;;;;;;;;;15.50;93.20;;;;;;5041595;28;19908;-70
2023/03/31 13:18:30;;;;;;;;;;;15.60;93.20;;;;;;5041523;28;20333;-72
2023/03/31 13:20:59;;;;;;;;;;;15.70;93.10;;;;;;5038812;28;20315;-72
2023/03/31 13:23:25;;;;;;;;;;;15.90;93.10;;;;;;5041810;28;19951;-72
2023/03/31 13:25:51;;;;;;;;;;;16.00;92.90;;;;;;5036587;28;19948;-71
2023/03/31 13:28:24;;;;;;;;;;;15.90;92.90;;;;;;5042680;28;19912;-71
2023/03/31 13:30:52;;;;;;;;;;;15.70;92.80;;;;;;5045154;28;19916;-74
2023/03/31 13:33:20;;;;;;;;;;;15.50;92.80;;;;;;5050976;28;19905;-73
2023/03/31 13:35:47;;;;;;;;;;;15.30;92.90;;;;;;5050346;28;19904;-72
2023/03/31 13:38:31;;;;;;;;;;;15.20;93.10;;;;;;5050599;28;19944;-74
2023/03/31 13:41:20;;;;;;;;;;;15.10;93.10;;;;;;5050207;28;20384;-74
2023/03/31 13:44:04;;;;;;;;;;;15.20;93.10;;;;;;5049136;28;20347;-74
2023/03/31 13:46:30;;;;;;;;;;;15.20;93.00;;;;;;5046742;28;20301;-74
2023/03/31 13:48:58;;;;;;;;;;;15.20;92.90;;;;;;5040462;28;19909;-74
2023/03/31 13:51:30;;;;;;;;;;;15.20;92.90;;;;;;5039170;28;19905;-74
2023/03/31 13:54:02;;;;;;;;;;;15.30;93.20;;;;;;5036334;28;19905;-73
2023/03/31 13:56:27;;;;;;;;;;;15.40;93.30;;;;;;5036011;28;19958;-77
2023/03/31 13:59:11;;;;;;;;;;;15.80;93.30;;;;;;5031027;28;19999;-74
2023/03/31 14:01:43;;;;;;;;;;;16.00;93.20;;;;;;5030488;28;19909;-74
2023/03/31 14:04:14;;;;;;;;;;;16.00;93.00;;;;;;5029060;28;19933;-76
2023/03/31 14:06:52;;;;;;;;;;;16.00;92.80;;;;;;5031069;28;20011;-74
2023/03/31 14:09:28;;;;;;;;;;;15.80;92.90;;;;;;5033049;28;20046;-81
2023/03/31 14:11:53;;;;;;;;;;;15.70;92.90;;;;;;5033473;28;19909;-78
2023/03/31 14:14:19;;;;;;;;;;;15.50;93.00;;;;;;5031986;28;19936;-73
2023/03/31 14:16:47;;;;;;;;;;;15.40;93.10;;;;;;5034639;28;19959;-81
2023/03/31 14:19:26;;;;;;;;;;;15.40;93.20;;;;;;5031602;28;19904;-79
2023/03/31 14:21:58;;;;;;;;;;;15.50;93.30;;;;;;5031768;28;19908;-80
2023/03/31 14:24:59;;;;;;;;;;;15.80;93.40;;;;;;5032395;28;19905;-82
2023/03/31 14:27:43;;;;;;;;;;;16.00;93.30;;;;;;4991880;28;19995;-76
2023/03/31 14:30:12;;;;;;;;;;;16.10;93.20;;;;;;5028284;28;19918;-75
2023/03/31 14:32:41;;;;;;;;;;;16.20;93.20;;;;;;5029185;28;19905;-72